sensor_id;sensor_type;location;lat;lon;timestamp;temperature;humidity
17807;DHT22;9027;48.938;9.182;2023-04-01T00:00:28;10.10;99.90
17807;DHT22;9027;48.938;9.182;2023-04-01T00:02:03;10.10;99.90
17807;DHT22;9027;48.938;9.182;2023-04-01T00:03:39;10.00;99.90
17807;DHT22;9027;48.938;9.182;2023-04-01T00:05:14;10.00;99.90
17807;DHT22;9027;48.938;9.182;2023-04-01T00:06:47;10.10;99.90
17807;DHT22;9027;48.938;9.182;2023-04-01T00:08:19;10.00;99.90
17807;DHT22;9027;48.938;9.182;2023-04-01T00:09:51;10.00;99.90
17807;DHT22;9027;48.938;9.182;2023-04-01T00:11:23;10.00;99.90
17807;DHT22;9027;48.938;9.182;2023-04-01T00:12:57;10.00;99.90
17807;DHT22;9027;48.938;9.182;2023-04-01T00:14:29;10.00;99.90
17807;DHT22;9027;48.938;9.182;2023-04-01T00:16:02;10.00;99.90
17807;DHT22;9027;48.938;9.182;2023-04-01T00:17:34;10.00;99.90
17807;DHT22;9027;48.938;9.182;2023-04-01T00:19:08;10.00;99.90
17807;DHT22;9027;48.938;9.182;2023-04-01T00:20:43;10.00;99.90
17807;DHT22;9027;48.938;9.182;2023-04-01T00:22:15;10.00;99.90
17807;DHT22;9027;48.938;9.182;2023-04-01T00:23:47;10.00;99.90
17807;DHT22;9027;48.938;9.182;2023-04-01T00:25:20;9.90;99.90
17807;DHT22;9027;48.938;9.182;2023-04-01T00:26:52;10.00;99.90
17807;DHT22;9027;48.938;9.182;2023-04-01T00:28:24;10.00;99.90
17807;DHT22;9027;48.938;9.182;2023-04-01T00:29:56;10.00;99.90
17807;DHT22;9027;48.938;9.182;2023-04-01T00:31:28;10.00;99.90
17807;DHT22;9027;48.938;9.182;2023-04-01T00:33:00;10.10;99.90
17807;DHT22;9027;48.938;9.182;2023-04-01T00:34:33;10.10;99.90
17807;DHT22;9027;48.938;9.182;2023-04-01T00:36:09;10.10;99.90
17807;DHT22;9027;48.938;9.182;2023-04-01T00:37:41;10.10;99.90
17807;DHT22;9027;48.938;9.182;2023-04-01T00:39:13;10.10;99.90
17807;DHT22;9027;48.938;9.182;2023-04-01T00:40:46;10.10;99.90
17807;DHT22;9027;48.938;9.182;2023-04-01T00:42:18;10.10;99.90
17807;DHT22;9027;48.938;9.182;2023-04-01T00:43:51;10.10;99.90
17807;DHT22;9027;48.938;9.182;2023-04-01T00:45:28;10.10;99.90
17807;DHT22;9027;48.938;9.182;2023-04-01T00:47:00;10.10;99.90
17807;DHT22;9027;48.938;9.182;2023-04-01T00:48:34;10.10;99.90
17807;DHT22;9027;48.938;9.182;2023-04-01T00:50:09;10.10;99.90
17807;DHT22;9027;48.938;9.182;2023-04-01T00:51:42;10.10;99.90
17807;DHT22;9027;48.938;9.182;2023-04-01T00:53:14;10.00;99.90
17807;DHT22;9027;48.938;9.182;2023-04-01T00:54:48;10.10;99.90
17807;DHT22;9027;48.938;9.182;2023-04-01T00:56:24;10.10;99.90
17807;DHT22;9027;48.938;9.182;2023-04-01T00:57:58;10.10;99.90
17807;DHT22;9027;48.938;9.182;2023-04-01T00:59:34;10.10;99.90
17807;DHT22;9027;48.938;9.182;2023-04-01T01:01:08;10.10;99.90
17807;DHT22;9027;48.938;9.182;2023-04-01T01:02:42;10.10;99.90
17807;DHT22;9027;48.938;9.182;2023-04-01T01:04:24;10.10;99.90
17807;DHT22;9027;48.938;9.182;2023-04-01T01:06:09;10.10;99.90
17807;DHT22;9027;48.938;9.182;2023-04-01T01:07:47;10.10;99.90
17807;DHT22;9027;48.938;9.182;2023-04-01T01:09:30;10.10;99.90
17807;DHT22;9027;48.938;9.182;2023-04-01T01:11:05;10.20;99.90
17807;DHT22;9027;48.938;9.182;2023-04-01T01:12:43;10.20;99.90
17807;DHT22;9027;48.938;9.182;2023-04-01T01:14:26;10.20;99.90
17807;DHT22;9027;48.938;9.182;2023-04-01T01:16:03;10.20;99.90
17807;DHT22;9027;48.938;9.182;2023-04-01T01:17:47;10.20;99.90
17807;DHT22;9027;48.938;9.182;2023-04-01T01:19:37;10.20;99.90
17807;DHT22;9027;48.938;9.182;2023-04-01T01:21:52;10.20;99.90
17807;DHT22;9027;48.938;9.182;2023-04-01T01:23:57;10.30;99.90
17807;DHT22;9027;48.938;9.182;2023-04-01T01:25:39;10.20;99.90
17807;DHT22;9027;48.938;9.182;2023-04-01T01:27:12;10.30;99.90
17807;DHT22;9027;48.938;9.182;2023-04-01T01:28:52;10.30;99.90
17807;DHT22;9027;48.938;9.182;2023-04-01T01:30:37;10.30;99.90
17807;DHT22;9027;48.938;9.182;2023-04-01T01:32:19;10.30;99.90
17807;DHT22;9027;48.938;9.182;2023-04-01T01:34:10;10.30;99.90
17807;DHT22;9027;48.938;9.182;2023-04-01T01:35:46;10.30;99.90
17807;DHT22;9027;48.938;9.182;2023-04-01T01:37:24;10.30;99.90
17807;DHT22;9027;48.938;9.182;2023-04-01T01:38:58;10.30;99.90
17807;DHT22;9027;48.938;9.182;2023-04-01T01:40:32;10.30;99.90
17807;DHT22;9027;48.938;9.182;2023-04-01T01:42:08;10.30;99.90
17807;DHT22;9027;48.938;9.182;2023-04-01T01:43:43;10.30;99.90
17807;DHT22;9027;48.938;9.182;2023-04-01T01:45:21;10.30;99.90
17807;DHT22;9027;48.938;9.182;2023-04-01T01:46:53;10.30;99.90
17807;DHT22;9027;48.938;9.182;2023-04-01T01:48:27;10.30;99.90
17807;DHT22;9027;48.938;9.182;2023-04-01T01:50:01;10.30;99.90
17807;DHT22;9027;48.938;9.182;2023-04-01T01:51:35;10.30;99.90
17807;DHT22;9027;48.938;9.182;2023-04-01T01:53:11;10.30;99.90
17807;DHT22;9027;48.938;9.182;2023-04-01T01:54:47;10.30;99.90
17807;DHT22;9027;48.938;9.182;2023-04-01T01:56:23;10.30;99.90
17807;DHT22;9027;48.938;9.182;2023-04-01T01:57:59;10.30;99.90
17807;DHT22;9027;48.938;9.182;2023-04-01T01:59:34;10.30;99.90
17807;DHT22;9027;48.938;9.182;2023-04-01T02:01:11;10.30;99.90
17807;DHT22;9027;48.938;9.182;2023-04-01T02:02:46;10.30;99.90
17807;DHT22;9027;48.938;9.182;2023-04-01T02:04:19;10.30;99.90
17807;DHT22;9027;48.938;9.182;2023-04-01T02:05:53;10.30;99.90
17807;DHT22;9027;48.938;9.182;2023-04-01T02:07:31;10.30;99.90
17807;DHT22;9027;48.938;9.182;2023-04-01T02:09:06;10.30;99.90
17807;DHT22;9027;48.938;9.182;2023-04-01T02:10:43;10.30;99.90
17807;DHT22;9027;48.938;9.182;2023-04-01T02:12:20;10.30;99.90
17807;DHT22;9027;48.938;9.182;2023-04-01T02:13:55;10.30;99.90
17807;DHT22;9027;48.938;9.182;2023-04-01T02:15:30;10.30;99.90
17807;DHT22;9027;48.938;9.182;2023-04-01T02:17:05;10.30;99.90
17807;DHT22;9027;48.938;9.182;2023-04-01T02:18:38;10.30;99.90
17807;DHT22;9027;48.938;9.182;2023-04-01T02:20:14;10.30;99.90
17807;DHT22;9027;48.938;9.182;2023-04-01T02:21:47;10.30;99.90
17807;DHT22;9027;48.938;9.182;2023-04-01T02:23:23;10.20;99.90
17807;DHT22;9027;48.938;9.182;2023-04-01T02:24:58;10.20;99.90
17807;DHT22;9027;48.938;9.182;2023-04-01T02:26:32;10.10;99.90
17807;DHT22;9027;48.938;9.182;2023-04-01T02:28:05;10.10;99.90
17807;DHT22;9027;48.938;9.182;2023-04-01T02:29:38;10.10;99.90
17807;DHT22;9027;48.938;9.182;2023-04-01T02:31:14;10.10;99.90
17807;DHT22;9027;48.938;9.182;2023-04-01T02:32:47;10.10;99.90
17807;DHT22;9027;48.938;9.182;2023-04-01T02:34:19;10.10;99.90
17807;DHT22;9027;48.938;9.182;2023-04-01T02:35:51;10.10;99.90
17807;DHT22;9027;48.938;9.182;2023-04-01T02:37:23;10.10;99.90
17807;DHT22;9027;48.938;9.182;2023-04-01T02:38:57;10.10;99.90
17807;DHT22;9027;48.938;9.182;2023-04-01T02:40:42;10.20;99.90
17807;DHT22;9027;48.938;9.182;2023-04-01T02:42:14;10.20;99.90
17807;DHT22;9027;48.938;9.182;2023-04-01T02:43:46;10.10;99.90
17807;DHT22;9027;48.938;9.182;2023-04-01T02:45:18;10.10;99.90
17807;DHT22;9027;48.938;9.182;2023-04-01T02:46:49;10.10;99.90
17807;DHT22;9027;48.938;9.182;2023-04-01T02:48:21;10.10;99.90
17807;DHT22;9027;48.938;9.182;2023-04-01T02:49:52;10.10;99.90
17807;DHT22;9027;48.938;9.182;2023-04-01T02:51:28;10.10;99.90
17807;DHT22;9027;48.938;9.182;2023-04-01T02:53:01;10.10;99.90
17807;DHT22;9027;48.938;9.182;2023-04-01T02:54:35;10.10;99.90
17807;DHT22;9027;48.938;9.182;2023-04-01T02:56:07;10.10;99.90
17807;DHT22;9027;48.938;9.182;2023-04-01T02:57:39;10.10;99.90
17807;DHT22;9027;48.938;9.182;2023-04-01T02:59:10;10.20;99.90
17807;DHT22;9027;48.938;9.182;2023-04-01T03:00:42;10.20;99.90
17807;DHT22;9027;48.938;9.182;2023-04-01T03:02:14;10.20;99.90
17807;DHT22;9027;48.938;9.182;2023-04-01T03:03:46;10.20;99.90
17807;DHT22;9027;48.938;9.182;2023-04-01T03:05:17;10.20;99.90
17807;DHT22;9027;48.938;9.182;2023-04-01T03:06:49;10.10;99.90
17807;DHT22;9027;48.938;9.182;2023-04-01T03:08:22;10.10;99.90
17807;DHT22;9027;48.938;9.182;2023-04-01T03:09:54;10.10;99.90
17807;DHT22;9027;48.938;9.182;2023-04-01T03:11:26;10.10;99.90
17807;DHT22;9027;48.938;9.182;2023-04-01T03:12:58;10.00;99.90
17807;DHT22;9027;48.938;9.182;2023-04-01T03:14:30;10.00;99.90
17807;DHT22;9027;48.938;9.182;2023-04-01T03:16:01;10.00;99.90
17807;DHT22;9027;48.938;9.182;2023-04-01T03:17:34;10.00;99.90
17807;DHT22;9027;48.938;9.182;2023-04-01T03:19:04;10.00;99.90
17807;DHT22;9027;48.938;9.182;2023-04-01T03:20:36;10.00;99.90
17807;DHT22;9027;48.938;9.182;2023-04-01T03:22:10;10.00;99.90
17807;DHT22;9027;48.938;9.182;2023-04-01T03:23:41;10.00;99.90
17807;DHT22;9027;48.938;9.182;2023-04-01T03:25:15;10.00;99.90
17807;DHT22;9027;48.938;9.182;2023-04-01T03:26:46;10.00;99.90
17807;DHT22;9027;48.938;9.182;2023-04-01T03:28:19;10.00;99.90
17807;DHT22;9027;48.938;9.182;2023-04-01T03:29:51;9.90;99.90
17807;DHT22;9027;48.938;9.182;2023-04-01T03:31:23;9.90;99.90
17807;DHT22;9027;48.938;9.182;2023-04-01T03:32:59;9.90;99.90
17807;DHT22;9027;48.938;9.182;2023-04-01T03:34:31;9.90;99.90
17807;DHT22;9027;48.938;9.182;2023-04-01T03:36:04;9.90;99.90
17807;DHT22;9027;48.938;9.182;2023-04-01T03:37:37;9.90;99.90
17807;DHT22;9027;48.938;9.182;2023-04-01T03:39:09;9.90;99.90
17807;DHT22;9027;48.938;9.182;2023-04-01T03:40:46;9.90;99.90
17807;DHT22;9027;48.938;9.182;2023-04-01T03:42:18;9.80;99.90
17807;DHT22;9027;48.938;9.182;2023-04-01T03:43:49;9.80;99.90
17807;DHT22;9027;48.938;9.182;2023-04-01T03:45:21;9.80;99.90
17807;DHT22;9027;48.938;9.182;2023-04-01T03:46:53;9.80;99.90
17807;DHT22;9027;48.938;9.182;2023-04-01T03:48:25;9.80;99.90
17807;DHT22;9027;48.938;9.182;2023-04-01T03:49:58;9.90;99.90
17807;DHT22;9027;48.938;9.182;2023-04-01T03:51:30;9.80;99.90
17807;DHT22;9027;48.938;9.182;2023-04-01T03:53:02;9.80;99.90
17807;DHT22;9027;48.938;9.182;2023-04-01T03:54:34;9.80;99.90
17807;DHT22;9027;48.938;9.182;2023-04-01T03:56:08;9.70;99.90
17807;DHT22;9027;48.938;9.182;2023-04-01T03:57:41;9.70;99.90
17807;DHT22;9027;48.938;9.182;2023-04-01T03:59:20;9.70;99.90
17807;DHT22;9027;48.938;9.182;2023-04-01T04:00:53;9.70;99.90
17807;DHT22;9027;48.938;9.182;2023-04-01T04:02:25;9.70;99.90
17807;DHT22;9027;48.938;9.182;2023-04-01T04:03:57;9.70;99.90
17807;DHT22;9027;48.938;9.182;2023-04-01T04:05:29;9.70;99.90
17807;DHT22;9027;48.938;9.182;2023-04-01T04:07:02;9.70;99.90
17807;DHT22;9027;48.938;9.182;2023-04-01T04:08:42;9.60;99.90
17807;DHT22;9027;48.938;9.182;2023-04-01T04:10:15;9.70;99.90
17807;DHT22;9027;48.938;9.182;2023-04-01T04:11:48;9.60;99.90
17807;DHT22;9027;48.938;9.182;2023-04-01T04:13:21;9.60;99.90
17807;DHT22;9027;48.938;9.182;2023-04-01T04:14:59;9.60;99.90
17807;DHT22;9027;48.938;9.182;2023-04-01T04:16:31;9.60;99.90
17807;DHT22;9027;48.938;9.182;2023-04-01T04:18:06;9.60;99.90
17807;DHT22;9027;48.938;9.182;2023-04-01T04:19:38;9.60;99.90
17807;DHT22;9027;48.938;9.182;2023-04-01T04:21:12;9.70;99.90
17807;DHT22;9027;48.938;9.182;2023-04-01T04:22:45;9.60;99.90
17807;DHT22;9027;48.938;9.182;2023-04-01T04:24:17;9.60;99.90
17807;DHT22;9027;48.938;9.182;2023-04-01T04:26:04;9.70;99.90
17807;DHT22;9027;48.938;9.182;2023-04-01T04:27:39;9.70;99.90
17807;DHT22;9027;48.938;9.182;2023-04-01T04:29:13;9.70;99.90
17807;DHT22;9027;48.938;9.182;2023-04-01T04:30:46;9.70;99.90
17807;DHT22;9027;48.938;9.182;2023-04-01T04:32:18;9.70;99.90
17807;DHT22;9027;48.938;9.182;2023-04-01T04:33:50;9.70;99.90
17807;DHT22;9027;48.938;9.182;2023-04-01T04:35:23;9.60;99.90
17807;DHT22;9027;48.938;9.182;2023-04-01T04:36:55;9.60;99.90
17807;DHT22;9027;48.938;9.182;2023-04-01T04:38:30;9.60;99.90
17807;DHT22;9027;48.938;9.182;2023-04-01T04:40:02;9.60;99.90
17807;DHT22;9027;48.938;9.182;2023-04-01T04:41:37;9.70;99.90
17807;DHT22;9027;48.938;9.182;2023-04-01T04:43:13;9.70;99.90
17807;DHT22;9027;48.938;9.182;2023-04-01T04:44:45;9.70;99.90
17807;DHT22;9027;48.938;9.182;2023-04-01T04:46:17;9.70;99.90
17807;DHT22;9027;48.938;9.182;2023-04-01T04:47:49;9.60;99.90
17807;DHT22;9027;48.938;9.182;2023-04-01T04:49:21;9.60;99.90
17807;DHT22;9027;48.938;9.182;2023-04-01T04:50:53;9.60;99.90
17807;DHT22;9027;48.938;9.182;2023-04-01T04:52:27;9.60;99.90
17807;DHT22;9027;48.938;9.182;2023-04-01T04:53:58;9.60;99.90
17807;DHT22;9027;48.938;9.182;2023-04-01T04:55:44;9.70;99.90
17807;DHT22;9027;48.938;9.182;2023-04-01T04:57:48;9.60;99.90
17807;DHT22;9027;48.938;9.182;2023-04-01T04:59:22;9.60;99.90
17807;DHT22;9027;48.938;9.182;2023-04-01T05:01:09;9.60;99.90
17807;DHT22;9027;48.938;9.182;2023-04-01T05:02:43;9.60;99.90
17807;DHT22;9027;48.938;9.182;2023-04-01T05:04:16;9.60;99.90
17807;DHT22;9027;48.938;9.182;2023-04-01T05:05:50;9.60;99.90
17807;DHT22;9027;48.938;9.182;2023-04-01T05:07:22;9.60;99.90
17807;DHT22;9027;48.938;9.182;2023-04-01T05:08:54;9.60;99.90
17807;DHT22;9027;48.938;9.182;2023-04-01T05:10:27;9.60;99.90
17807;DHT22;9027;48.938;9.182;2023-04-01T05:11:59;9.60;99.90
17807;DHT22;9027;48.938;9.182;2023-04-01T05:13:37;9.60;99.90
17807;DHT22;9027;48.938;9.182;2023-04-01T05:15:10;9.50;99.90
17807;DHT22;9027;48.938;9.182;2023-04-01T05:16:43;9.50;99.90
17807;DHT22;9027;48.938;9.182;2023-04-01T05:18:15;9.60;99.90
17807;DHT22;9027;48.938;9.182;2023-04-01T05:19:47;9.50;99.90
17807;DHT22;9027;48.938;9.182;2023-04-01T05:21:19;9.50;99.90
17807;DHT22;9027;48.938;9.182;2023-04-01T05:22:55;9.50;99.90
17807;DHT22;9027;48.938;9.182;2023-04-01T05:24:27;9.50;99.90
17807;DHT22;9027;48.938;9.182;2023-04-01T05:26:03;9.60;99.90
17807;DHT22;9027;48.938;9.182;2023-04-01T05:27:36;9.60;99.90
17807;DHT22;9027;48.938;9.182;2023-04-01T05:29:08;9.60;99.90
17807;DHT22;9027;48.938;9.182;2023-04-01T05:30:42;9.60;99.90
17807;DHT22;9027;48.938;9.182;2023-04-01T05:32:33;9.70;99.90
17807;DHT22;9027;48.938;9.182;2023-04-01T05:34:05;9.70;99.90
17807;DHT22;9027;48.938;9.182;2023-04-01T05:35:38;9.70;99.90
17807;DHT22;9027;48.938;9.182;2023-04-01T05:37:10;9.70;99.90
17807;DHT22;9027;48.938;9.182;2023-04-01T05:38:42;9.70;99.90
17807;DHT22;9027;48.938;9.182;2023-04-01T05:40:17;9.70;99.90
17807;DHT22;9027;48.938;9.182;2023-04-01T05:41:49;9.80;99.90
17807;DHT22;9027;48.938;9.182;2023-04-01T05:43:21;9.80;99.90
17807;DHT22;9027;48.938;9.182;2023-04-01T05:44:54;9.80;99.90
17807;DHT22;9027;48.938;9.182;2023-04-01T05:46:46;9.80;99.90
17807;DHT22;9027;48.938;9.182;2023-04-01T05:48:23;9.80;99.90
17807;DHT22;9027;48.938;9.182;2023-04-01T05:49:55;9.70;99.90
17807;DHT22;9027;48.938;9.182;2023-04-01T05:51:26;9.70;99.90
17807;DHT22;9027;48.938;9.182;2023-04-01T05:52:58;9.70;99.90
17807;DHT22;9027;48.938;9.182;2023-04-01T05:54:31;9.80;99.90
17807;DHT22;9027;48.938;9.182;2023-04-01T05:56:03;9.80;99.90
17807;DHT22;9027;48.938;9.182;2023-04-01T05:57:40;9.80;99.90
17807;DHT22;9027;48.938;9.182;2023-04-01T05:59:12;9.80;99.90
17807;DHT22;9027;48.938;9.182;2023-04-01T06:00:45;9.80;99.90
17807;DHT22;9027;48.938;9.182;2023-04-01T06:02:19;9.80;99.90
17807;DHT22;9027;48.938;9.182;2023-04-01T06:03:50;9.90;99.90
17807;DHT22;9027;48.938;9.182;2023-04-01T06:05:24;9.90;99.90
17807;DHT22;9027;48.938;9.182;2023-04-01T06:06:56;10.00;99.90
17807;DHT22;9027;48.938;9.182;2023-04-01T06:08:30;10.00;99.90
17807;DHT22;9027;48.938;9.182;2023-04-01T06:10:10;10.00;99.90
17807;DHT22;9027;48.938;9.182;2023-04-01T06:11:55;10.10;99.90
17807;DHT22;9027;48.938;9.182;2023-04-01T06:13:46;10.10;99.90
17807;DHT22;9027;48.938;9.182;2023-04-01T06:15:30;10.10;99.90
17807;DHT22;9027;48.938;9.182;2023-04-01T06:17:16;10.20;99.90
17807;DHT22;9027;48.938;9.182;2023-04-01T06:18:59;10.20;99.90
17807;DHT22;9027;48.938;9.182;2023-04-01T06:20:41;10.20;99.90
17807;DHT22;9027;48.938;9.182;2023-04-01T06:22:26;10.20;99.90
17807;DHT22;9027;48.938;9.182;2023-04-01T06:24:07;10.20;99.90
17807;DHT22;9027;48.938;9.182;2023-04-01T06:25:54;10.30;99.90
17807;DHT22;9027;48.938;9.182;2023-04-01T06:27:43;10.30;99.90
17807;DHT22;9027;48.938;9.182;2023-04-01T06:29:29;10.30;99.90
17807;DHT22;9027;48.938;9.182;2023-04-01T06:31:11;10.40;99.90
17807;DHT22;9027;48.938;9.182;2023-04-01T06:34:56;10.40;99.90
17807;DHT22;9027;48.938;9.182;2023-04-01T06:38:49;10.50;99.90
17807;DHT22;9027;48.938;9.182;2023-04-01T06:40:52;10.50;99.90
17807;DHT22;9027;48.938;9.182;2023-04-01T06:42:39;10.50;99.90
17807;DHT22;9027;48.938;9.182;2023-04-01T06:44:44;10.60;99.90
17807;DHT22;9027;48.938;9.182;2023-04-01T06:46:44;10.60;99.90
17807;DHT22;9027;48.938;9.182;2023-04-01T06:48:45;10.60;99.90
17807;DHT22;9027;48.938;9.182;2023-04-01T06:50:49;10.70;99.90
17807;DHT22;9027;48.938;9.182;2023-04-01T06:52:48;10.60;99.90
17807;DHT22;9027;48.938;9.182;2023-04-01T06:54:50;10.60;99.90
17807;DHT22;9027;48.938;9.182;2023-04-01T06:57:02;10.70;99.90
17807;DHT22;9027;48.938;9.182;2023-04-01T06:58:40;10.70;99.90
17807;DHT22;9027;48.938;9.182;2023-04-01T07:00:19;10.60;99.90
17807;DHT22;9027;48.938;9.182;2023-04-01T07:01:56;10.60;99.90
17807;DHT22;9027;48.938;9.182;2023-04-01T07:03:33;10.60;99.90
17807;DHT22;9027;48.938;9.182;2023-04-01T07:05:08;10.70;99.90
17807;DHT22;9027;48.938;9.182;2023-04-01T07:06:48;10.70;99.90
17807;DHT22;9027;48.938;9.182;2023-04-01T07:08:25;10.70;99.90
17807;DHT22;9027;48.938;9.182;2023-04-01T07:10:00;10.70;99.90
17807;DHT22;9027;48.938;9.182;2023-04-01T07:11:36;10.70;99.90
17807;DHT22;9027;48.938;9.182;2023-04-01T07:13:49;10.70;99.90
17807;DHT22;9027;48.938;9.182;2023-04-01T07:15:26;10.70;99.90
17807;DHT22;9027;48.938;9.182;2023-04-01T07:17:02;10.70;99.90
17807;DHT22;9027;48.938;9.182;2023-04-01T07:18:41;10.70;99.90
17807;DHT22;9027;48.938;9.182;2023-04-01T07:20:20;10.80;99.90
17807;DHT22;9027;48.938;9.182;2023-04-01T07:21:58;10.80;99.90
17807;DHT22;9027;48.938;9.182;2023-04-01T07:23:45;10.90;99.90
17807;DHT22;9027;48.938;9.182;2023-04-01T07:25:43;10.90;99.90
17807;DHT22;9027;48.938;9.182;2023-04-01T07:27:50;10.90;99.90
17807;DHT22;9027;48.938;9.182;2023-04-01T07:29:23;10.90;99.90
17807;DHT22;9027;48.938;9.182;2023-04-01T07:31:07;10.90;99.90
17807;DHT22;9027;48.938;9.182;2023-04-01T07:32:47;10.90;99.90
17807;DHT22;9027;48.938;9.182;2023-04-01T07:34:25;10.90;99.90
17807;DHT22;9027;48.938;9.182;2023-04-01T07:36:03;10.90;99.90
17807;DHT22;9027;48.938;9.182;2023-04-01T07:37:45;10.90;99.90
17807;DHT22;9027;48.938;9.182;2023-04-01T07:39:30;10.80;99.90
17807;DHT22;9027;48.938;9.182;2023-04-01T07:41:22;10.80;99.90
17807;DHT22;9027;48.938;9.182;2023-04-01T07:43:25;10.80;99.90
17807;DHT22;9027;48.938;9.182;2023-04-01T07:45:18;10.80;99.90
17807;DHT22;9027;48.938;9.182;2023-04-01T07:47:22;10.80;99.90
17807;DHT22;9027;48.938;9.182;2023-04-01T07:49:01;10.90;99.90
17807;DHT22;9027;48.938;9.182;2023-04-01T07:50:40;10.90;99.90
17807;DHT22;9027;48.938;9.182;2023-04-01T07:52:18;10.90;99.90
17807;DHT22;9027;48.938;9.182;2023-04-01T07:54:04;10.90;99.90
17807;DHT22;9027;48.938;9.182;2023-04-01T07:55:42;11.00;99.90
17807;DHT22;9027;48.938;9.182;2023-04-01T07:57:20;11.10;99.90
17807;DHT22;9027;48.938;9.182;2023-04-01T07:59:02;11.10;99.90
17807;DHT22;9027;48.938;9.182;2023-04-01T08:01:01;11.10;99.90
17807;DHT22;9027;48.938;9.182;2023-04-01T08:02:52;11.20;99.90
17807;DHT22;9027;48.938;9.182;2023-04-01T08:04:35;11.20;99.90
17807;DHT22;9027;48.938;9.182;2023-04-01T08:06:16;11.10;99.90
17807;DHT22;9027;48.938;9.182;2023-04-01T08:07:56;11.10;99.90
17807;DHT22;9027;48.938;9.182;2023-04-01T08:09:58;11.10;99.90
17807;DHT22;9027;48.938;9.182;2023-04-01T08:12:07;11.20;99.90
17807;DHT22;9027;48.938;9.182;2023-04-01T08:14:05;11.20;99.90
17807;DHT22;9027;48.938;9.182;2023-04-01T08:16:09;11.20;99.90
17807;DHT22;9027;48.938;9.182;2023-04-01T08:17:59;11.20;99.90
17807;DHT22;9027;48.938;9.182;2023-04-01T08:19:46;11.20;99.90
17807;DHT22;9027;48.938;9.182;2023-04-01T08:21:25;11.30;99.90
17807;DHT22;9027;48.938;9.182;2023-04-01T08:23:05;11.30;99.90
17807;DHT22;9027;48.938;9.182;2023-04-01T08:24:44;11.30;99.90
17807;DHT22;9027;48.938;9.182;2023-04-01T08:26:26;11.30;99.90
17807;DHT22;9027;48.938;9.182;2023-04-01T08:28:10;11.20;99.90
17807;DHT22;9027;48.938;9.182;2023-04-01T08:29:49;11.20;99.90
17807;DHT22;9027;48.938;9.182;2023-04-01T08:31:26;11.20;99.90
17807;DHT22;9027;48.938;9.182;2023-04-01T08:33:08;11.20;99.90
17807;DHT22;9027;48.938;9.182;2023-04-01T08:34:44;11.20;99.90
17807;DHT22;9027;48.938;9.182;2023-04-01T08:36:30;11.20;99.90
17807;DHT22;9027;48.938;9.182;2023-04-01T08:38:23;11.20;99.90
17807;DHT22;9027;48.938;9.182;2023-04-01T08:40:00;11.20;99.90
17807;DHT22;9027;48.938;9.182;2023-04-01T08:42:06;11.20;99.90
17807;DHT22;9027;48.938;9.182;2023-04-01T08:44:17;11.20;99.90
17807;DHT22;9027;48.938;9.182;2023-04-01T08:48:30;11.00;99.90
17807;DHT22;9027;48.938;9.182;2023-04-01T08:52:35;10.80;99.90
17807;DHT22;9027;48.938;9.182;2023-04-01T08:54:27;10.70;99.90
17807;DHT22;9027;48.938;9.182;2023-04-01T08:56:12;10.70;99.90
17807;DHT22;9027;48.938;9.182;2023-04-01T08:58:01;10.70;99.90
17807;DHT22;9027;48.938;9.182;2023-04-01T09:00:00;10.60;99.90
17807;DHT22;9027;48.938;9.182;2023-04-01T09:02:38;10.70;99.90
17807;DHT22;9027;48.938;9.182;2023-04-01T09:04:30;10.70;99.90
17807;DHT22;9027;48.938;9.182;2023-04-01T09:08:08;10.60;99.90
17807;DHT22;9027;48.938;9.182;2023-04-01T09:12:23;10.60;99.90
17807;DHT22;9027;48.938;9.182;2023-04-01T09:14:19;10.60;99.90
17807;DHT22;9027;48.938;9.182;2023-04-01T09:16:33;10.60;99.90
17807;DHT22;9027;48.938;9.182;2023-04-01T09:18:31;10.70;99.90
17807;DHT22;9027;48.938;9.182;2023-04-01T09:20:18;10.70;99.90
17807;DHT22;9027;48.938;9.182;2023-04-01T09:22:14;10.70;99.90
17807;DHT22;9027;48.938;9.182;2023-04-01T09:24:05;10.80;99.90
17807;DHT22;9027;48.938;9.182;2023-04-01T09:25:52;10.80;99.90
17807;DHT22;9027;48.938;9.182;2023-04-01T09:27:29;10.90;99.90
17807;DHT22;9027;48.938;9.182;2023-04-01T09:29:16;11.00;99.90
17807;DHT22;9027;48.938;9.182;2023-04-01T09:31:11;11.10;99.90
17807;DHT22;9027;48.938;9.182;2023-04-01T09:33:35;11.20;99.90
17807;DHT22;9027;48.938;9.182;2023-04-01T09:35:22;11.20;99.90
17807;DHT22;9027;48.938;9.182;2023-04-01T09:37:19;11.20;99.90
17807;DHT22;9027;48.938;9.182;2023-04-01T09:38:57;11.30;99.90
17807;DHT22;9027;48.938;9.182;2023-04-01T09:40:40;11.30;99.90
17807;DHT22;9027;48.938;9.182;2023-04-01T09:42:41;11.30;99.90
17807;DHT22;9027;48.938;9.182;2023-04-01T09:44:27;11.30;99.90
17807;DHT22;9027;48.938;9.182;2023-04-01T09:46:23;11.30;99.90
17807;DHT22;9027;48.938;9.182;2023-04-01T09:48:09;11.30;99.90
17807;DHT22;9027;48.938;9.182;2023-04-01T09:50:13;11.30;99.90
17807;DHT22;9027;48.938;9.182;2023-04-01T09:51:55;11.30;99.90
17807;DHT22;9027;48.938;9.182;2023-04-01T09:53:45;11.40;99.90
17807;DHT22;9027;48.938;9.182;2023-04-01T09:55:46;11.40;99.90
17807;DHT22;9027;48.938;9.182;2023-04-01T09:57:50;11.40;99.90
17807;DHT22;9027;48.938;9.182;2023-04-01T10:04:59;11.50;99.90
17807;DHT22;9027;48.938;9.182;2023-04-01T10:09:37;11.40;99.90
17807;DHT22;9027;48.938;9.182;2023-04-01T10:15:47;11.40;99.90
17807;DHT22;9027;48.938;9.182;2023-04-01T10:17:47;11.40;99.90
17807;DHT22;9027;48.938;9.182;2023-04-01T10:22:06;11.40;99.90
17807;DHT22;9027;48.938;9.182;2023-04-01T10:28:20;11.40;99.90
17807;DHT22;9027;48.938;9.182;2023-04-01T10:31:16;11.40;99.90
17807;DHT22;9027;48.938;9.182;2023-04-01T10:35:44;11.30;99.90
17807;DHT22;9027;48.938;9.182;2023-04-01T10:37:41;11.30;99.90
17807;DHT22;9027;48.938;9.182;2023-04-01T10:42:23;11.40;99.90
17807;DHT22;9027;48.938;9.182;2023-04-01T10:47:09;11.50;99.90
17807;DHT22;9027;48.938;9.182;2023-04-01T10:51:18;11.60;99.90
17807;DHT22;9027;48.938;9.182;2023-04-01T10:53:14;11.60;99.90
17807;DHT22;9027;48.938;9.182;2023-04-01T10:55:53;11.60;99.90
17807;DHT22;9027;48.938;9.182;2023-04-01T11:03:38;11.60;99.90
17807;DHT22;9027;48.938;9.182;2023-04-01T11:10:32;11.70;99.90
17807;DHT22;9027;48.938;9.182;2023-04-01T11:14:59;11.80;99.90
17807;DHT22;9027;48.938;9.182;2023-04-01T11:17:06;11.70;99.90
17807;DHT22;9027;48.938;9.182;2023-04-01T11:21:27;11.90;99.90
17807;DHT22;9027;48.938;9.182;2023-04-01T11:27:39;11.90;99.90
17807;DHT22;9027;48.938;9.182;2023-04-01T11:29:36;12.00;99.90
17807;DHT22;9027;48.938;9.182;2023-04-01T11:31:35;12.00;99.90
17807;DHT22;9027;48.938;9.182;2023-04-01T11:33:15;12.00;99.90
17807;DHT22;9027;48.938;9.182;2023-04-01T11:35:00;12.00;99.90
17807;DHT22;9027;48.938;9.182;2023-04-01T11:36:46;12.00;99.90
17807;DHT22;9027;48.938;9.182;2023-04-01T11:38:38;12.00;99.90
17807;DHT22;9027;48.938;9.182;2023-04-01T11:40:55;12.20;99.90
17807;DHT22;9027;48.938;9.182;2023-04-01T11:43:10;12.10;99.90
17807;DHT22;9027;48.938;9.182;2023-04-01T11:45:31;12.20;99.90
17807;DHT22;9027;48.938;9.182;2023-04-01T11:47:22;12.10;99.90
17807;DHT22;9027;48.938;9.182;2023-04-01T11:49:07;12.20;99.90
17807;DHT22;9027;48.938;9.182;2023-04-01T11:51:13;12.20;99.90
17807;DHT22;9027;48.938;9.182;2023-04-01T11:53:20;12.20;99.90
17807;DHT22;9027;48.938;9.182;2023-04-01T11:55:14;12.30;99.90